logo
Search for airport 
image banner adimage banner adimage banner ad
image banner ad

BIMS - Tungubakkar Mosfellsbae

Located in Tungubakkar Mosfellsbae, Iceland

ICAO - BIMS, IATA -

Data provided by Airmate  

General information

Coordinates: N64°10'52" W21°42'28"
Elevation is 18 feet MSL.
 
View others Airports in Capital Region

Operational data

Special qualification required
Current time UTC:
Current local time:
Weather at : BIRK - Reykjavik ( 13 km )
METAR: BIRK 131900Z 29007KT CAVOK 00/M08 Q1003
TAF: TAF BIRK 131621Z 1318/1418 35008KT 9999 FEW030 TX05/1415Z TNM01/1403Z BECMG 1321/1323 11010KT BECMG 1403/1405 10017G28KT TEMPO 1405/1418 3000 SNRA OVC010
View NOTAMs / SUP AIP / TFR affecting this airport [VIEW]
Communications frequencies: [VIEW]

Runways:

RWY identifierQFULength (ft)Width (ft)SurfaceLDA (ft)
071772148GRASS
251772148GRASS

Airport contact information

Address: Tungubakkar Mosfellsbae Iceland

Satellite view of BIMS